Sheoaks, Australia
Current Conditions -  °F | °C
As of 7:00 PM on Monday 20 Oct 2014 (Local Time) from YMAV Reporting Station
Clear Clear  
Wind Chill: 59°   Ceiling: Unl
Heat Index: 59°   Visibility: 6mi
Dew Point: 48°   Wind: 17mph
Humidity: 67%   Direction: 150°SSE
Pressure: 30.33"   Gusts: NA
Location:  37.9°S, 144.12°E
Report Text: YMAV 200800Z AUTO 15015KT 9999 // NCD 15/09 Q1027
Loading
Personal Weather Stations






























Interactive Weather Map
Tropical Storm Tracking
New forecast layout! Learn more

10-Day Weather Forecast

Advertisements
Track Severe Weather on mobile